createdAt,value
2022-12-28T00:04:29.290Z,5.90
2022-12-28T00:09:35.065Z,6.40
2022-12-28T00:14:40.977Z,6.70
2022-12-28T00:19:46.878Z,6.20
2022-12-28T00:24:52.713Z,6.30
2022-12-28T00:29:58.626Z,5.90
2022-12-28T00:35:06.277Z,5.80
2022-12-28T00:40:16.464Z,5.80
2022-12-28T00:45:27.224Z,5.70
2022-12-28T00:50:33.049Z,6.00
2022-12-28T00:55:39.095Z,5.90
2022-12-28T01:00:45.159Z,5.70
2022-12-28T01:05:50.962Z,6.10
2022-12-28T01:10:56.784Z,5.80
2022-12-28T01:16:09.274Z,6.20
2022-12-28T01:21:17.411Z,5.50
2022-12-28T01:26:23.472Z,6.40
2022-12-28T01:31:30.149Z,6.40
2022-12-28T01:36:35.934Z,6.40
2022-12-28T01:41:44.961Z,5.70
2022-12-28T01:46:55.242Z,7.10
2022-12-28T01:52:06.830Z,7.80
2022-12-28T01:57:14.242Z,8.30
2022-12-28T02:02:21.943Z,6.90
2022-12-28T02:07:36.607Z,6.80
2022-12-28T02:12:43.031Z,7.00
2022-12-28T02:17:49.004Z,6.70
2022-12-28T02:23:28.482Z,7.10
2022-12-28T02:29:24.091Z,6.00
2022-12-28T02:34:38.261Z,5.70
2022-12-28T02:39:49.327Z,6.50
2022-12-28T02:45:13.944Z,6.00
2022-12-28T02:50:21.347Z,6.60
2022-12-28T02:56:10.145Z,6.20
2022-12-28T03:01:29.320Z,7.10
2022-12-28T03:07:04.334Z,8.70
2022-12-28T03:12:19.763Z,7.70
2022-12-28T03:17:47.797Z,8.40
2022-12-28T03:23:16.461Z,7.90
2022-12-28T03:28:46.342Z,9.10
2022-12-28T03:34:06.832Z,9.50
2022-12-28T03:39:29.997Z,8.70
2022-12-28T03:44:38.311Z,7.90
2022-12-28T03:49:44.795Z,7.80
2022-12-28T03:54:51.528Z,8.20
2022-12-28T03:59:58.102Z,7.40
2022-12-28T04:05:04.231Z,7.60
2022-12-28T04:10:11.688Z,9.20
2022-12-28T04:15:17.587Z,23.30
2022-12-28T04:20:23.894Z,27.00
2022-12-28T04:25:29.798Z,19.10
2022-12-28T04:30:35.558Z,14.00
2022-12-28T04:35:41.496Z,11.50
2022-12-28T04:40:47.594Z,10.90
2022-12-28T04:45:59.586Z,8.90
2022-12-28T04:51:10.881Z,8.70
2022-12-28T04:56:18.626Z,9.00
2022-12-28T05:01:25.147Z,8.60
2022-12-28T05:06:31.518Z,7.20
2022-12-28T05:11:37.242Z,12.30
2022-12-28T05:16:43.325Z,12.50
2022-12-28T05:21:49.258Z,9.00
2022-12-28T05:26:55.060Z,8.50
2022-12-28T05:32:00.820Z,10.20
2022-12-28T05:37:06.678Z,21.80
2022-12-28T05:42:12.387Z,12.20
2022-12-28T05:47:18.252Z,10.80
2022-12-28T05:52:24.100Z,10.00
2022-12-28T05:57:30.433Z,10.80
2022-12-28T06:02:36.321Z,12.10
2022-12-28T06:07:42.407Z,12.10
2022-12-28T06:12:48.730Z,11.00
2022-12-28T06:17:55.425Z,11.80
2022-12-28T06:23:01.131Z,11.90
2022-12-28T06:28:07.260Z,14.60
2022-12-28T06:33:13.095Z,12.80
2022-12-28T06:38:18.680Z,11.30
2022-12-28T06:43:24.458Z,13.30
2022-12-28T06:48:31.505Z,13.20
2022-12-28T06:53:38.867Z,12.50
2022-12-28T06:58:45.956Z,11.20
2022-12-28T07:03:53.718Z,13.30
2022-12-28T07:09:04.752Z,13.00
2022-12-28T07:19:15.081Z,12.10
2022-12-28T07:24:20.819Z,12.70
2022-12-28T07:29:26.531Z,12.90
2022-12-28T07:34:33.255Z,12.20
2022-12-28T07:39:39.190Z,11.30
2022-12-28T07:44:49.128Z,12.50
2022-12-28T07:49:55.348Z,13.30
2022-12-28T07:55:01.499Z,12.50
2022-12-28T08:00:09.295Z,11.80
2022-12-28T08:05:23.929Z,13.60
2022-12-28T08:10:29.537Z,13.60
2022-12-28T08:15:35.436Z,12.40
2022-12-28T08:20:41.223Z,12.00
2022-12-28T08:25:46.909Z,11.50
2022-12-28T08:30:52.743Z,11.50
2022-12-28T08:35:59.420Z,11.60
2022-12-28T08:41:07.697Z,8.80
2022-12-28T08:46:16.456Z,9.20
2022-12-28T08:51:24.576Z,10.90
2022-12-28T08:56:32.589Z,10.10
2022-12-28T09:01:44.170Z,10.10
2022-12-28T09:06:51.172Z,10.00
2022-12-28T09:11:56.825Z,10.80
2022-12-28T09:17:02.617Z,10.00
2022-12-28T09:22:08.492Z,10.10
2022-12-28T09:27:14.385Z,9.90
2022-12-28T09:32:20.254Z,9.00
2022-12-28T09:37:26.015Z,9.20
2022-12-28T09:42:32.804Z,10.00
2022-12-28T09:47:45.891Z,10.70
2022-12-28T09:53:05.431Z,9.90
2022-12-28T09:58:16.676Z,11.00
2022-12-28T10:03:29.274Z,9.50
2022-12-28T10:08:41.034Z,23.00
2022-12-28T10:13:56.674Z,25.30
2022-12-28T10:19:02.661Z,10.50
2022-12-28T10:24:30.983Z,8.10
2022-12-28T10:29:38.621Z,8.50
2022-12-28T10:34:58.631Z,7.50
2022-12-28T10:40:18.502Z,7.20
2022-12-28T10:45:31.872Z,8.60
2022-12-28T10:50:45.964Z,22.90
2022-12-28T10:56:03.447Z,26.90
2022-12-28T11:01:19.382Z,11.10
2022-12-28T11:06:28.127Z,6.80
2022-12-28T11:11:35.122Z,7.10
2022-12-28T11:16:42.570Z,13.20
2022-12-28T11:21:49.361Z,6.60
2022-12-28T11:26:55.746Z,8.00
2022-12-28T11:32:07.164Z,7.20
2022-12-28T11:37:15.312Z,7.90
2022-12-28T11:42:55.177Z,7.50
2022-12-28T11:48:48.644Z,8.30
2022-12-28T11:53:58.518Z,9.30
2022-12-28T11:59:20.736Z,9.50
2022-12-28T12:04:41.206Z,8.40
2022-12-28T12:09:49.128Z,8.90
2022-12-28T12:15:02.369Z,10.50
2022-12-28T12:20:20.292Z,7.80
2022-12-28T12:25:35.385Z,8.30
2022-12-28T12:30:45.009Z,9.30
2022-12-28T12:36:02.873Z,8.10
2022-12-28T12:41:20.782Z,10.10
2022-12-28T12:46:56.271Z,8.60
2022-12-28T12:52:15.962Z,9.20
2022-12-28T12:57:25.642Z,8.70
2022-12-28T13:03:02.400Z,8.70
2022-12-28T13:08:22.643Z,8.10
2022-12-28T13:13:32.889Z,9.80
2022-12-28T13:18:46.463Z,9.10
2022-12-28T13:23:53.196Z,10.00
2022-12-28T13:29:01.473Z,9.10
2022-12-28T13:34:17.541Z,8.10
2022-12-28T13:39:24.656Z,8.30
2022-12-28T13:44:39.393Z,8.70
2022-12-28T13:49:51.985Z,9.20
2022-12-28T13:55:02.124Z,8.50
2022-12-28T14:00:10.538Z,9.20
2022-12-28T14:05:20.366Z,9.20
2022-12-28T14:10:26.905Z,8.40
2022-12-28T14:15:40.873Z,9.60
2022-12-28T14:20:52.221Z,8.30
2022-12-28T14:26:00.443Z,7.70
2022-12-28T14:31:08.367Z,9.70
2022-12-28T14:36:22.430Z,9.30
2022-12-28T14:41:32.884Z,8.90
2022-12-28T14:46:41.283Z,9.30
2022-12-28T14:51:47.164Z,9.00
2022-12-28T14:56:59.400Z,11.00
2022-12-28T15:02:05.889Z,15.10
2022-12-28T15:07:13.794Z,9.60
2022-12-28T15:12:21.827Z,9.90
2022-12-28T15:17:33.484Z,10.40
2022-12-28T15:22:39.575Z,11.00
2022-12-28T15:27:48.395Z,8.60
2022-12-28T15:32:54.324Z,8.00
2022-12-28T15:37:59.998Z,9.30
2022-12-28T15:43:05.843Z,8.00
2022-12-28T15:48:11.662Z,8.70
2022-12-28T15:53:17.784Z,8.00
2022-12-28T15:58:23.507Z,6.70
2022-12-28T16:03:29.584Z,7.10
2022-12-28T16:08:35.426Z,8.50
2022-12-28T16:13:41.588Z,7.90
2022-12-28T16:18:47.705Z,9.90
2022-12-28T16:23:54.387Z,8.20
2022-12-28T16:29:02.060Z,7.70
2022-12-28T16:34:10.535Z,8.80
2022-12-28T16:39:18.242Z,7.80
2022-12-28T16:44:26.868Z,8.60
2022-12-28T16:49:32.734Z,7.20
2022-12-28T16:54:40.727Z,8.50
2022-12-28T16:59:46.723Z,8.90
2022-12-28T17:04:52.622Z,9.80
2022-12-28T17:09:58.380Z,9.40
2022-12-28T17:15:05.512Z,8.30
2022-12-28T17:20:12.807Z,9.50
2022-12-28T17:25:18.615Z,8.70
2022-12-28T17:30:24.450Z,9.30
2022-12-28T17:35:30.253Z,10.30
2022-12-28T17:40:38.203Z,11.70
2022-12-28T17:45:44.400Z,9.80
2022-12-28T17:50:50.160Z,10.50
2022-12-28T17:55:56.110Z,10.70
2022-12-28T18:01:03.239Z,10.50
2022-12-28T18:06:09.509Z,9.90
2022-12-28T18:11:16.067Z,9.30
2022-12-28T18:16:21.932Z,9.40
2022-12-28T18:21:28.544Z,8.70
2022-12-28T18:26:34.427Z,7.90
2022-12-28T18:31:40.191Z,9.40
2022-12-28T18:36:46.144Z,9.70
2022-12-28T18:41:52.263Z,9.90
2022-12-28T18:46:58.163Z,11.50
2022-12-28T18:52:04.416Z,10.00
2022-12-28T18:57:10.976Z,9.70
2022-12-28T19:02:19.675Z,9.90
2022-12-28T19:07:26.854Z,10.50
2022-12-28T19:12:32.583Z,8.30
2022-12-28T19:17:38.395Z,9.40
2022-12-28T19:22:44.096Z,9.40
2022-12-28T19:27:50.791Z,8.80
2022-12-28T19:32:56.765Z,8.80
2022-12-28T19:38:02.562Z,9.80
2022-12-28T19:43:08.179Z,8.50
2022-12-28T19:48:13.892Z,9.30
2022-12-28T19:53:19.727Z,10.40
2022-12-28T19:58:25.725Z,9.40
2022-12-28T20:03:32.013Z,10.20
2022-12-28T20:08:38.685Z,10.60
2022-12-28T20:13:44.722Z,9.50
2022-12-28T20:18:51.829Z,9.50
2022-12-28T20:23:57.610Z,8.40
2022-12-28T20:29:04.922Z,9.10
2022-12-28T20:34:10.781Z,9.00
2022-12-28T20:39:16.583Z,10.00
2022-12-28T20:44:29.090Z,9.00
2022-12-28T20:49:35.851Z,8.50
2022-12-28T20:54:41.622Z,7.60
2022-12-28T20:59:47.384Z,8.40
2022-12-28T21:04:53.399Z,8.20
2022-12-28T21:09:59.276Z,7.90
2022-12-28T21:15:06.348Z,9.30
2022-12-28T21:20:12.791Z,10.00
2022-12-28T21:25:18.679Z,7.80
2022-12-28T21:30:24.495Z,7.80
2022-12-28T21:35:34.084Z,8.30
2022-12-28T21:40:40.789Z,8.00
2022-12-28T21:45:58.469Z,7.30
2022-12-28T21:51:29.641Z,9.50
2022-12-28T21:56:36.782Z,7.00
2022-12-28T22:02:01.932Z,8.70
2022-12-28T22:07:10.968Z,7.90
2022-12-28T22:12:35.773Z,7.40
2022-12-28T22:17:42.157Z,8.60
2022-12-28T22:22:47.866Z,7.60
2022-12-28T22:27:53.844Z,7.90
2022-12-28T22:32:59.539Z,7.90
2022-12-28T22:38:05.314Z,7.50
2022-12-28T22:43:11.024Z,8.60
2022-12-28T22:48:17.089Z,8.20
2022-12-28T22:53:22.776Z,8.60
2022-12-28T22:58:28.921Z,8.00
2022-12-28T23:03:36.671Z,7.40
2022-12-28T23:08:42.846Z,7.90
2022-12-28T23:13:48.569Z,8.30
2022-12-28T23:19:13.463Z,8.30
2022-12-28T23:24:38.065Z,8.30
2022-12-28T23:29:44.581Z,7.40
2022-12-28T23:34:51.707Z,7.20
2022-12-28T23:39:57.529Z,8.60
2022-12-28T23:45:03.377Z,9.00
2022-12-28T23:50:10.811Z,7.60
2022-12-28T23:55:17.122Z,7.70
